createdAt,value
2018-03-28T00:01:45.604Z,18.57
2018-03-28T00:04:16.078Z,17.73
2018-03-28T00:06:46.555Z,15.97
2018-03-28T00:09:16.998Z,20.63
2018-03-28T00:11:48.087Z,18.23
2018-03-28T00:14:18.528Z,16.57
2018-03-28T00:16:49.120Z,23.93
2018-03-28T00:19:20.373Z,16.80
2018-03-28T00:21:51.699Z,18.90
2018-03-28T00:24:22.949Z,21.20
2018-03-28T00:26:54.187Z,22.13
2018-03-28T00:29:25.315Z,14.50
2018-03-28T00:31:57.509Z,19.40
2018-03-28T00:34:28.719Z,18.60
2018-03-28T00:36:59.198Z,12.40
2018-03-28T00:39:30.415Z,12.40
2018-03-28T00:42:00.863Z,15.77
2018-03-28T00:44:32.064Z,13.63
2018-03-28T00:47:02.576Z,13.37
2018-03-28T00:49:33.045Z,10.87
2018-03-28T00:52:03.492Z,25.57
2018-03-28T00:54:34.742Z,11.67
2018-03-28T00:57:05.195Z,12.83
2018-03-28T00:59:35.623Z,15.93
2018-03-28T01:02:06.066Z,13.43
2018-03-28T01:04:36.520Z,13.23
2018-03-28T01:07:07.656Z,11.93
2018-03-28T01:09:38.126Z,12.03
2018-03-28T01:12:08.591Z,9.13
2018-03-28T01:14:40.735Z,15.47
2018-03-28T01:17:11.219Z,11.70
2018-03-28T01:19:41.728Z,11.93
2018-03-28T01:22:12.256Z,9.77
2018-03-28T01:24:42.692Z,11.80
2018-03-28T01:27:13.185Z,10.83
2018-03-28T01:29:43.611Z,11.87
2018-03-28T01:32:14.846Z,11.90
2018-03-28T01:34:45.351Z,10.23
2018-03-28T01:37:16.622Z,16.80
2018-03-28T01:39:47.060Z,10.60
2018-03-28T01:42:17.532Z,22.80
2018-03-28T01:44:48.731Z,16.77
2018-03-28T01:47:19.204Z,8.30
2018-03-28T01:49:50.583Z,12.80
2018-03-28T01:52:21.229Z,10.30
2018-03-28T01:54:51.714Z,10.90
2018-03-28T01:57:23.836Z,12.10
2018-03-28T01:59:54.272Z,14.80
2018-03-28T02:02:25.547Z,14.00
2018-03-28T02:04:56.008Z,9.93
2018-03-28T02:07:26.439Z,13.13
2018-03-28T02:09:56.945Z,13.10
2018-03-28T02:12:28.203Z,17.60
2018-03-28T02:14:58.647Z,19.00
2018-03-28T02:17:29.095Z,21.33
2018-03-28T02:19:59.563Z,14.47
2018-03-28T02:22:31.315Z,25.57
2018-03-28T02:25:01.762Z,21.60
2018-03-28T02:27:32.989Z,23.23
2018-03-28T02:30:03.476Z,18.03
2018-03-28T02:32:33.987Z,18.77
2018-03-28T02:35:04.519Z,20.37
2018-03-28T02:37:35.008Z,19.93
2018-03-28T02:40:07.189Z,21.77
2018-03-28T02:42:38.593Z,25.07
2018-03-28T02:45:09.084Z,19.77
2018-03-28T02:47:39.526Z,13.97
2018-03-28T02:50:09.967Z,23.20
2018-03-28T02:52:40.438Z,21.70
2018-03-28T02:55:11.651Z,21.40
2018-03-28T02:57:42.099Z,20.97
2018-03-28T03:00:12.560Z,20.20
2018-03-28T03:02:43.008Z,18.03
2018-03-28T03:05:14.300Z,17.93
2018-03-28T03:07:44.759Z,19.03
2018-03-28T03:10:15.292Z,23.90
2018-03-28T03:12:45.818Z,27.23
2018-03-28T03:15:16.272Z,16.33
2018-03-28T03:17:46.743Z,17.77
2018-03-28T03:20:17.964Z,19.90
2018-03-28T03:22:48.438Z,17.00
2018-03-28T03:25:19.608Z,15.30
2018-03-28T03:27:50.079Z,13.33
2018-03-28T03:30:20.503Z,14.30
2018-03-28T03:32:51.916Z,13.33
2018-03-28T03:35:22.356Z,13.53
2018-03-28T03:37:53.035Z,17.00
2018-03-28T03:40:24.371Z,14.77
2018-03-28T03:42:55.618Z,14.80
2018-03-28T03:45:26.840Z,14.37
2018-03-28T03:47:57.318Z,15.33
2018-03-28T03:50:27.812Z,18.10
2018-03-28T03:52:58.293Z,15.60
2018-03-28T03:55:28.807Z,22.70
2018-03-28T03:57:59.316Z,14.40
2018-03-28T04:00:30.498Z,16.30
2018-03-28T04:03:01.276Z,15.30
2018-03-28T04:05:31.715Z,14.27
2018-03-28T04:08:02.971Z,17.17
2018-03-28T04:10:34.228Z,14.90
2018-03-28T04:13:05.634Z,15.17
2018-03-28T04:15:36.099Z,18.17
2018-03-28T04:18:06.599Z,15.80
2018-03-28T04:20:37.823Z,14.77
2018-03-28T04:23:08.252Z,20.80
2018-03-28T04:25:38.736Z,16.97
2018-03-28T04:28:09.287Z,15.20
2018-03-28T04:30:39.707Z,16.10
2018-03-28T04:33:10.171Z,14.60
2018-03-28T04:35:40.612Z,16.37
2018-03-28T04:38:11.402Z,16.70
2018-03-28T04:40:41.871Z,19.13
2018-03-28T04:43:12.337Z,22.17
2018-03-28T04:45:42.803Z,19.90
2018-03-28T04:48:13.235Z,27.77
2018-03-28T04:50:43.695Z,20.00
2018-03-28T04:53:15.023Z,16.47
2018-03-28T04:55:45.550Z,17.40
2018-03-28T04:58:16.019Z,15.73
2018-03-28T05:00:46.465Z,18.30
2018-03-28T05:03:16.903Z,59.20
2018-03-28T05:05:47.370Z,47.60
2018-03-28T05:08:18.628Z,32.33
2018-03-28T05:10:50.752Z,29.83
2018-03-28T05:13:21.246Z,15.17
2018-03-28T05:15:51.828Z,16.93
2018-03-28T05:18:22.314Z,18.23
2018-03-28T05:20:52.771Z,17.00
2018-03-28T05:23:23.223Z,16.97
2018-03-28T05:25:54.433Z,20.53
2018-03-28T05:28:25.179Z,33.33
2018-03-28T05:30:55.714Z,27.27
2018-03-28T05:33:26.460Z,33.63
2018-03-28T05:35:56.910Z,26.70
2018-03-28T05:38:28.151Z,23.20
2018-03-28T05:41:00.701Z,24.70
2018-03-28T05:43:31.146Z,25.55
2018-03-28T05:46:02.355Z,20.67
2018-03-28T05:48:33.767Z,23.23
2018-03-28T05:51:04.242Z,15.33
2018-03-28T05:53:34.724Z,21.43
2018-03-28T05:56:05.232Z,28.67
2018-03-28T05:58:36.451Z,14.57
2018-03-28T06:01:07.327Z,17.63
2018-03-28T06:03:37.792Z,14.60
2018-03-28T06:06:08.203Z,16.30
2018-03-28T06:08:38.677Z,14.40
2018-03-28T06:11:09.090Z,19.90
2018-03-28T06:13:39.527Z,20.13
2018-03-28T06:16:10.159Z,14.60
2018-03-28T06:18:40.620Z,15.40
2018-03-28T06:21:11.094Z,14.03
2018-03-28T06:23:41.576Z,13.83
2018-03-28T06:26:12.243Z,16.97
2018-03-28T06:28:42.688Z,12.47
2018-03-28T06:33:47.696Z,13.97
2018-03-28T06:36:18.168Z,12.70
2018-03-28T06:38:48.992Z,14.63
2018-03-28T06:41:19.909Z,11.90
2018-03-28T06:43:50.368Z,14.13
2018-03-28T06:46:20.872Z,15.33
2018-03-28T06:48:51.342Z,25.33
2018-03-28T06:51:22.555Z,19.33
2018-03-28T06:53:53.006Z,12.67
2018-03-28T06:56:23.538Z,10.80
2018-03-28T06:58:54.004Z,12.80
2018-03-28T07:01:24.470Z,12.80
2018-03-28T07:03:54.915Z,17.50
2018-03-28T07:06:25.362Z,13.63
2018-03-28T07:08:56.559Z,13.67
2018-03-28T07:11:27.030Z,14.10
2018-03-28T07:13:58.239Z,14.83
2018-03-28T07:16:28.718Z,11.63
2018-03-28T07:18:59.177Z,23.77
2018-03-28T07:21:29.707Z,14.03
2018-03-28T07:24:00.155Z,13.37
2018-03-28T07:26:30.633Z,12.07
2018-03-28T07:29:01.998Z,12.07
2018-03-28T07:31:32.495Z,11.80
2018-03-28T07:34:03.724Z,12.23
2018-03-28T07:36:34.306Z,12.73
2018-03-28T07:39:05.019Z,14.63
2018-03-28T07:41:35.515Z,12.70
2018-03-28T07:44:06.246Z,14.90
2018-03-28T07:46:36.728Z,16.43
2018-03-28T07:49:07.223Z,11.50
2018-03-28T07:51:38.440Z,17.80
2018-03-28T07:54:09.142Z,10.13
2018-03-28T07:56:39.603Z,10.20
2018-03-28T07:59:10.049Z,11.43
2018-03-28T08:01:41.864Z,11.93
2018-03-28T08:04:12.375Z,16.10
2018-03-28T08:06:43.580Z,12.83
2018-03-28T08:09:15.791Z,14.47
2018-03-28T08:11:46.229Z,12.30
2018-03-28T08:14:16.687Z,12.13
2018-03-28T08:16:47.224Z,12.77
2018-03-28T08:19:17.791Z,13.50
2018-03-28T08:21:48.235Z,10.03
2018-03-28T08:24:18.682Z,10.57
2018-03-28T08:26:49.105Z,10.93
2018-03-28T08:29:19.615Z,10.37
2018-03-28T08:31:50.158Z,12.47
2018-03-28T08:34:20.895Z,9.93
2018-03-28T08:36:51.380Z,10.17
2018-03-28T08:39:21.895Z,10.60
2018-03-28T08:41:53.977Z,10.43
2018-03-28T08:44:24.483Z,10.67
2018-03-28T08:46:55.719Z,10.13
2018-03-28T08:49:26.163Z,18.53
2018-03-28T08:51:57.442Z,11.10
2018-03-28T08:54:28.805Z,11.67
2018-03-28T08:56:59.284Z,10.80
2018-03-28T08:59:30.471Z,10.40
2018-03-28T09:02:01.227Z,10.83
2018-03-28T09:04:31.672Z,12.93
2018-03-28T09:07:02.409Z,13.40
2018-03-28T09:09:32.864Z,15.53
2018-03-28T09:12:03.341Z,15.53
2018-03-28T09:14:34.267Z,13.33
2018-03-28T09:17:04.850Z,13.10
2018-03-28T09:19:36.376Z,18.23
2018-03-28T09:22:06.952Z,13.63
2018-03-28T09:24:37.424Z,18.27
2018-03-28T09:27:07.907Z,17.57
2018-03-28T09:29:38.411Z,13.40
2018-03-28T09:32:09.615Z,11.00
2018-03-28T09:34:40.087Z,11.40
2018-03-28T09:37:10.686Z,16.03
2018-03-28T09:39:41.578Z,12.03
2018-03-28T09:42:12.800Z,10.60
2018-03-28T09:44:44.038Z,10.03
2018-03-28T09:47:15.453Z,15.07
2018-03-28T09:49:46.295Z,11.87
2018-03-28T09:52:16.844Z,13.10
2018-03-28T09:54:47.540Z,14.43
2018-03-28T09:57:18.052Z,22.40
2018-03-28T09:59:48.578Z,14.60
2018-03-28T10:02:19.317Z,14.73
2018-03-28T10:04:52.365Z,22.23
2018-03-28T10:07:26.133Z,14.47
2018-03-28T10:09:56.623Z,14.90
2018-03-28T10:12:27.076Z,15.63
2018-03-28T10:14:57.558Z,13.73
2018-03-28T10:17:28.790Z,13.70
2018-03-28T10:20:00.050Z,13.10
2018-03-28T10:22:31.278Z,15.73
2018-03-28T10:25:01.748Z,17.57
2018-03-28T10:27:32.163Z,33.93
2018-03-28T10:30:02.623Z,28.17
2018-03-28T10:32:33.064Z,12.87
2018-03-28T10:35:03.559Z,16.67
2018-03-28T10:37:34.043Z,15.80
2018-03-28T10:40:04.502Z,14.37
2018-03-28T10:42:34.964Z,15.43
2018-03-28T10:45:05.473Z,14.80
2018-03-28T10:47:36.003Z,19.80
2018-03-28T10:50:06.563Z,17.87
2018-03-28T10:52:37.379Z,17.80
2018-03-28T10:55:08.518Z,17.63
2018-03-28T10:57:39.027Z,14.50
2018-03-28T11:00:09.484Z,12.47
2018-03-28T11:02:39.984Z,14.40
2018-03-28T11:05:10.760Z,18.27
2018-03-28T11:07:43.136Z,21.60
2018-03-28T11:10:13.613Z,14.07
2018-03-28T11:12:45.033Z,18.17
2018-03-28T11:15:16.267Z,17.17
2018-03-28T11:17:46.855Z,13.40
2018-03-28T11:20:17.343Z,13.43
2018-03-28T11:22:49.479Z,14.10
2018-03-28T11:25:22.551Z,15.63
2018-03-28T11:30:27.482Z,15.23
2018-03-28T11:32:58.057Z,13.80
2018-03-28T11:35:28.542Z,19.13
2018-03-28T11:37:59.009Z,25.00
2018-03-28T11:40:30.620Z,20.25
2018-03-28T11:43:02.250Z,12.80
2018-03-28T11:45:33.683Z,19.33
2018-03-28T11:48:04.419Z,14.30
2018-03-28T11:50:41.809Z,12.23
2018-03-28T11:53:14.266Z,15.33
2018-03-28T11:55:53.324Z,15.73
2018-03-28T11:58:28.474Z,16.17
2018-03-28T12:01:00.754Z,19.37
2018-03-28T12:03:35.696Z,17.87
2018-03-28T12:06:09.626Z,14.60
2018-03-28T12:08:40.650Z,18.52
2018-03-28T12:11:12.420Z,16.47
2018-03-28T12:13:48.088Z,21.87
2018-03-28T12:16:22.689Z,12.90
2018-03-28T12:18:55.227Z,13.53
2018-03-28T12:21:26.211Z,19.08
2018-03-28T12:23:57.810Z,18.00
2018-03-28T12:26:28.649Z,24.23
2018-03-28T12:29:00.406Z,15.30
2018-03-28T12:31:34.215Z,16.43
2018-03-28T12:34:06.641Z,17.27
2018-03-28T12:36:38.105Z,16.37
2018-03-28T12:39:08.673Z,15.93
2018-03-28T12:41:39.903Z,16.08
2018-03-28T12:44:11.761Z,18.63
2018-03-28T12:46:43.004Z,18.00
2018-03-28T12:49:13.455Z,19.47
2018-03-28T12:51:44.688Z,19.97
2018-03-28T12:54:17.895Z,17.30
2018-03-28T12:56:48.358Z,14.27
2018-03-28T12:59:18.834Z,14.50
2018-03-28T13:01:50.060Z,21.43
2018-03-28T13:04:21.432Z,16.57
2018-03-28T13:06:52.651Z,18.00
2018-03-28T13:09:23.123Z,21.73
2018-03-28T13:11:53.600Z,14.30
2018-03-28T13:14:25.011Z,21.70
2018-03-28T13:16:55.524Z,13.80
2018-03-28T13:19:26.244Z,22.43
2018-03-28T13:21:59.863Z,27.00
2018-03-28T13:24:31.214Z,17.33
2018-03-28T13:27:03.984Z,20.03
2018-03-28T13:29:36.150Z,17.80
2018-03-28T13:32:09.029Z,22.20
2018-03-28T13:34:43.364Z,18.60
2018-03-28T13:37:14.151Z,20.20
2018-03-28T13:39:45.389Z,30.45
2018-03-28T13:42:18.007Z,22.13
2018-03-28T13:44:50.217Z,27.80
2018-03-28T13:47:23.179Z,14.60
2018-03-28T13:49:53.699Z,20.03
2018-03-28T13:52:25.327Z,26.00
2018-03-28T13:54:58.155Z,20.07
2018-03-28T13:57:28.648Z,18.83
2018-03-28T14:00:02.196Z,12.60
2018-03-28T14:02:36.593Z,24.23
2018-03-28T14:05:07.134Z,22.13
2018-03-28T14:07:38.464Z,12.90
2018-03-28T14:10:09.531Z,12.67
2018-03-28T14:12:40.803Z,15.53
2018-03-28T14:15:12.237Z,12.70
2018-03-28T14:17:44.094Z,13.17
2018-03-28T14:20:19.092Z,17.40
2018-03-28T14:22:53.100Z,13.67
2018-03-28T14:25:24.550Z,17.17
2018-03-28T14:27:58.877Z,14.47
2018-03-28T14:30:33.300Z,14.85
2018-03-28T14:33:05.549Z,17.47
2018-03-28T14:35:36.090Z,23.17
2018-03-28T14:38:07.620Z,21.02
2018-03-28T14:40:40.265Z,23.10
2018-03-28T14:43:13.720Z,16.80
2018-03-28T14:45:49.014Z,16.80
2018-03-28T14:48:20.723Z,14.50
2018-03-28T14:50:52.163Z,17.53
2018-03-28T14:53:24.123Z,18.02
2018-03-28T14:55:55.429Z,15.33
2018-03-28T14:58:26.032Z,15.77
2018-03-28T15:00:58.593Z,13.52
2018-03-28T15:03:29.865Z,17.27
2018-03-28T15:06:01.621Z,15.70
2018-03-28T15:08:32.121Z,14.77
2018-03-28T15:11:04.777Z,18.60
2018-03-28T15:13:42.025Z,16.87
2018-03-28T15:16:13.964Z,22.70
2018-03-28T15:18:47.176Z,22.52
2018-03-28T15:21:19.050Z,17.23
2018-03-28T15:23:54.468Z,16.97
2018-03-28T15:26:26.583Z,20.33
2018-03-28T15:28:57.760Z,18.73
2018-03-28T15:31:29.387Z,19.77
2018-03-28T15:34:00.945Z,15.60
2018-03-28T15:36:33.727Z,18.57
2018-03-28T15:39:10.005Z,18.57
2018-03-28T15:41:41.343Z,15.05
2018-03-28T15:44:12.547Z,14.73
2018-03-28T15:46:43.005Z,15.60
2018-03-28T15:49:15.572Z,15.83
2018-03-28T15:51:47.356Z,14.25
2018-03-28T15:54:17.840Z,17.50
2018-03-28T15:56:49.119Z,16.93
2018-03-28T15:59:21.167Z,16.27
2018-03-28T16:01:52.184Z,19.80
2018-03-28T16:04:23.510Z,23.93
2018-03-28T16:06:53.993Z,20.70
2018-03-28T16:09:25.202Z,22.90
2018-03-28T16:11:57.090Z,24.77
2018-03-28T16:14:27.562Z,20.90
2018-03-28T16:16:58.058Z,17.80
2018-03-28T16:19:29.283Z,21.23
2018-03-28T16:22:00.087Z,34.83
2018-03-28T16:24:30.539Z,25.62
2018-03-28T16:27:00.970Z,21.50
2018-03-28T16:29:32.895Z,17.27
2018-03-28T16:32:05.141Z,20.20
2018-03-28T16:34:40.637Z,24.02
2018-03-28T16:37:11.087Z,20.17
2018-03-28T16:39:43.120Z,22.60
2018-03-28T16:42:13.558Z,18.80
2018-03-28T16:44:43.995Z,22.40
2018-03-28T16:47:14.451Z,24.67
2018-03-28T16:49:47.515Z,31.03
2018-03-28T16:52:17.944Z,27.23
2018-03-28T16:54:49.167Z,19.10
2018-03-28T16:57:19.715Z,22.63
2018-03-28T16:59:50.146Z,21.90
2018-03-28T17:02:21.265Z,26.47
2018-03-28T17:04:51.749Z,26.33
2018-03-28T17:07:22.396Z,22.90
2018-03-28T17:09:52.967Z,24.30
2018-03-28T17:12:24.281Z,36.83
2018-03-28T17:14:54.927Z,27.07
2018-03-28T17:17:25.382Z,17.23
2018-03-28T17:19:57.009Z,24.07
2018-03-28T17:22:28.666Z,24.83
2018-03-28T17:24:59.164Z,24.57
2018-03-28T17:27:29.643Z,26.30
2018-03-28T17:30:00.099Z,25.03
2018-03-28T17:32:30.528Z,22.77
2018-03-28T17:35:00.953Z,35.87
2018-03-28T17:37:31.687Z,30.37
2018-03-28T17:40:03.188Z,27.10
2018-03-28T17:42:33.639Z,26.37
2018-03-28T17:45:04.133Z,26.27
2018-03-28T17:47:34.592Z,34.03
2018-03-28T17:50:05.050Z,27.30
2018-03-28T17:52:36.469Z,27.35
2018-03-28T17:55:07.817Z,34.87
2018-03-28T17:57:38.279Z,25.87
2018-03-28T18:00:09.480Z,23.70
2018-03-28T18:02:39.943Z,24.75
2018-03-28T18:05:10.389Z,28.53
2018-03-28T18:07:40.864Z,27.70
2018-03-28T18:10:11.336Z,30.10
2018-03-28T18:12:42.716Z,25.77
2018-03-28T18:15:13.160Z,38.50
2018-03-28T18:17:47.147Z,28.55
2018-03-28T18:20:17.592Z,26.17
2018-03-28T18:22:48.039Z,34.82
2018-03-28T18:25:18.509Z,33.97
2018-03-28T18:27:49.722Z,21.30
2018-03-28T18:30:20.915Z,23.73
2018-03-28T18:32:52.713Z,18.17
2018-03-28T18:35:25.646Z,30.60
2018-03-28T18:37:56.150Z,21.23
2018-03-28T18:40:27.466Z,23.27
2018-03-28T18:42:57.913Z,30.13
2018-03-28T18:45:29.992Z,24.97
2018-03-28T18:48:00.775Z,21.97
2018-03-28T18:50:31.198Z,38.00
2018-03-28T18:53:01.665Z,35.93
2018-03-28T18:55:32.879Z,34.03
2018-03-28T18:58:03.412Z,31.17
2018-03-28T19:00:34.438Z,24.85
2018-03-28T19:03:04.940Z,28.23
2018-03-28T19:05:35.360Z,21.45
2018-03-28T19:08:07.092Z,29.93
2018-03-28T19:10:38.626Z,27.40
2018-03-28T19:13:09.057Z,30.93
2018-03-28T19:15:39.519Z,26.60
2018-03-28T19:18:10.215Z,31.00
2018-03-28T19:20:40.693Z,20.85
2018-03-28T19:23:11.119Z,33.87
2018-03-28T19:25:41.646Z,18.80
2018-03-28T19:28:12.084Z,27.90
2018-03-28T19:30:42.527Z,23.60
2018-03-28T19:33:12.943Z,21.00
2018-03-28T19:35:44.144Z,20.55
2018-03-28T19:38:15.346Z,20.13
2018-03-28T19:40:45.823Z,33.63
2018-03-28T19:43:16.280Z,24.30
2018-03-28T19:45:47.091Z,22.67
2018-03-28T19:48:17.568Z,30.53
2018-03-28T19:50:48.039Z,25.70
2018-03-28T19:53:19.249Z,23.47
2018-03-28T19:55:50.708Z,30.93
2018-03-28T19:58:21.140Z,31.07
2018-03-28T20:00:52.356Z,29.63
2018-03-28T20:03:22.796Z,25.37
2018-03-28T20:05:53.576Z,23.90
2018-03-28T20:08:24.024Z,28.30
2018-03-28T20:10:54.483Z,24.73
2018-03-28T20:13:24.928Z,36.53
2018-03-28T20:15:56.271Z,30.63
2018-03-28T20:18:27.250Z,26.97
2018-03-28T20:20:57.683Z,26.13
2018-03-28T20:23:28.115Z,22.47
2018-03-28T20:25:59.424Z,29.33
2018-03-28T20:28:30.617Z,31.30
2018-03-28T20:31:01.063Z,23.50
2018-03-28T20:33:31.512Z,28.83
2018-03-28T20:36:01.939Z,25.60
2018-03-28T20:38:33.495Z,21.58
2018-03-28T20:41:04.395Z,24.60
2018-03-28T20:43:34.848Z,30.67
2018-03-28T20:46:05.339Z,24.60
2018-03-28T20:48:35.815Z,29.33
2018-03-28T20:51:07.514Z,25.07
2018-03-28T20:53:39.107Z,29.67
2018-03-28T20:56:09.563Z,34.37
2018-03-28T20:58:40.743Z,27.50
2018-03-28T21:01:11.187Z,21.20
2018-03-28T21:03:41.624Z,22.10
2018-03-28T21:06:12.070Z,27.37
2018-03-28T21:08:42.495Z,27.67
2018-03-28T21:11:12.899Z,29.77
2018-03-28T21:13:43.330Z,30.90
2018-03-28T21:16:13.768Z,25.43
2018-03-28T21:18:44.217Z,26.35
2018-03-28T21:21:14.863Z,24.10
2018-03-28T21:23:45.360Z,32.37
2018-03-28T21:26:15.816Z,29.43
2018-03-28T21:28:47.036Z,20.30
2018-03-28T21:31:19.239Z,20.33
2018-03-28T21:33:49.665Z,27.37
2018-03-28T21:36:20.139Z,18.43
2018-03-28T21:38:50.594Z,27.33
2018-03-28T21:41:21.815Z,24.67
2018-03-28T21:43:52.265Z,38.30
2018-03-28T21:46:23.581Z,24.40
2018-03-28T21:48:54.071Z,21.87
2018-03-28T21:51:24.499Z,26.87
2018-03-28T21:53:54.903Z,30.17
2018-03-28T21:56:26.131Z,20.10
2018-03-28T21:58:56.563Z,23.17
2018-03-28T22:01:28.740Z,23.67
2018-03-28T22:04:00.891Z,35.70
2018-03-28T22:06:31.335Z,40.10
2018-03-28T22:09:02.855Z,27.63
2018-03-28T22:11:33.303Z,21.43
2018-03-28T22:14:04.540Z,21.87
2018-03-28T22:16:34.975Z,25.40
2018-03-28T22:19:06.322Z,23.37
2018-03-28T22:21:38.479Z,33.70
2018-03-28T22:24:08.963Z,29.13
2018-03-28T22:26:39.494Z,23.52
2018-03-28T22:29:09.954Z,23.87
2018-03-28T22:31:40.423Z,24.83
2018-03-28T22:34:10.871Z,33.57
2018-03-28T22:36:42.511Z,22.15
2018-03-28T22:39:14.624Z,22.35
2018-03-28T22:41:45.067Z,28.20
2018-03-28T22:44:15.475Z,30.47
2018-03-28T22:46:45.934Z,22.73
2018-03-28T22:49:17.132Z,24.03
2018-03-28T22:51:47.600Z,22.00
2018-03-28T22:54:18.812Z,30.37
2018-03-28T22:56:49.304Z,21.07
2018-03-28T22:59:19.737Z,24.33
2018-03-28T23:01:50.410Z,27.13
2018-03-28T23:04:20.856Z,27.20
2018-03-28T23:06:51.315Z,28.80
2018-03-28T23:09:22.055Z,23.27
2018-03-28T23:11:52.808Z,31.33
2018-03-28T23:14:23.424Z,35.53
2018-03-28T23:16:53.852Z,32.33
2018-03-28T23:19:24.485Z,24.97
2018-03-28T23:21:54.935Z,23.48
2018-03-28T23:24:27.186Z,21.90
2018-03-28T23:26:59.327Z,26.50
2018-03-28T23:29:30.087Z,27.50
2018-03-28T23:32:00.534Z,24.73
2018-03-28T23:34:30.959Z,27.73
2018-03-28T23:37:01.823Z,26.20
2018-03-28T23:39:33.047Z,23.57
2018-03-28T23:42:03.503Z,22.37
2018-03-28T23:44:34.757Z,22.30
2018-03-28T23:47:05.963Z,25.03
2018-03-28T23:49:36.401Z,29.47
2018-03-28T23:52:06.858Z,27.15
2018-03-28T23:54:38.073Z,29.17
2018-03-28T23:57:09.154Z,28.13
2018-03-28T23:59:40.490Z,29.47
